createdAt,value
2023-04-30T00:01:56.480Z,3.45
2023-04-30T00:04:23.105Z,3.50
2023-04-30T00:06:49.674Z,3.33
2023-04-30T00:09:16.216Z,3.97
2023-04-30T00:11:42.829Z,4.13
2023-04-30T00:14:10.066Z,3.65
2023-04-30T00:16:36.633Z,3.78
2023-04-30T00:19:03.168Z,3.65
2023-04-30T00:21:29.733Z,3.55
2023-04-30T00:23:56.326Z,3.53
2023-04-30T00:26:22.746Z,3.60
2023-04-30T00:28:49.213Z,3.72
2023-04-30T00:31:15.721Z,3.47
2023-04-30T00:33:42.147Z,4.45
2023-04-30T00:36:08.649Z,3.72
2023-04-30T00:38:35.209Z,3.65
2023-04-30T00:41:01.754Z,3.90
2023-04-30T00:43:28.299Z,3.78
2023-04-30T00:45:54.800Z,4.00
2023-04-30T00:48:21.544Z,3.72
2023-04-30T00:50:47.995Z,4.13
2023-04-30T00:53:14.560Z,3.65
2023-04-30T00:55:41.522Z,4.00
2023-04-30T00:58:08.277Z,3.70
2023-04-30T01:00:34.861Z,3.83
2023-04-30T01:03:01.658Z,3.88
2023-04-30T01:05:28.217Z,3.65
2023-04-30T01:07:55.794Z,4.30
2023-04-30T01:10:28.193Z,4.00
2023-04-30T01:12:58.889Z,3.88
2023-04-30T01:15:51.697Z,4.15
2023-04-30T01:18:37.049Z,4.13
2023-04-30T01:21:06.388Z,3.92
2023-04-30T01:23:34.417Z,4.47
2023-04-30T01:26:16.249Z,4.20
2023-04-30T01:28:44.545Z,4.40
2023-04-30T01:31:14.673Z,4.43
2023-04-30T01:33:41.189Z,4.45
2023-04-30T01:36:16.331Z,5.05
2023-04-30T01:38:54.771Z,5.05
2023-04-30T01:41:27.225Z,5.03
2023-04-30T01:44:12.312Z,4.45
2023-04-30T01:46:39.022Z,4.72
2023-04-30T01:49:15.512Z,4.40
2023-04-30T01:51:42.197Z,4.72
2023-04-30T01:54:21.071Z,4.00
2023-04-30T01:56:53.880Z,4.78
2023-04-30T01:59:20.709Z,4.82
2023-04-30T02:01:47.226Z,4.80
2023-04-30T02:04:13.661Z,4.72
2023-04-30T02:06:41.457Z,4.57
2023-04-30T02:09:08.098Z,5.75
2023-04-30T02:11:34.555Z,4.85
2023-04-30T02:14:01.021Z,4.95
2023-04-30T02:16:27.570Z,5.35
2023-04-30T02:18:54.370Z,5.30
2023-04-30T02:21:21.237Z,4.65
2023-04-30T02:23:48.045Z,5.10
2023-04-30T02:26:14.638Z,5.03
2023-04-30T02:28:41.273Z,4.95
2023-04-30T02:31:08.060Z,5.22
2023-04-30T02:33:34.572Z,5.18
2023-04-30T02:36:01.651Z,5.05
2023-04-30T02:38:28.187Z,5.35
2023-04-30T02:40:54.736Z,5.15
2023-04-30T02:43:21.290Z,5.03
2023-04-30T02:45:47.950Z,5.40
2023-04-30T02:48:14.376Z,6.13
2023-04-30T02:50:40.820Z,5.55
2023-04-30T02:53:07.316Z,5.50
2023-04-30T02:55:33.796Z,5.47
2023-04-30T02:58:00.303Z,5.65
2023-04-30T03:00:27.189Z,5.93
2023-04-30T03:02:53.681Z,5.63
2023-04-30T03:05:20.458Z,5.50
2023-04-30T03:07:46.906Z,5.20
2023-04-30T03:10:13.396Z,5.03
2023-04-30T03:12:40.008Z,5.88
2023-04-30T03:15:06.953Z,5.40
2023-04-30T03:17:33.408Z,5.63
2023-04-30T03:19:59.879Z,6.30
2023-04-30T03:22:26.732Z,6.45
2023-04-30T03:24:53.368Z,5.53
2023-04-30T03:27:19.882Z,6.18
2023-04-30T03:29:46.522Z,5.85
2023-04-30T03:32:12.962Z,6.22
2023-04-30T03:34:39.438Z,6.35
2023-04-30T03:37:05.933Z,5.40
2023-04-30T03:39:32.395Z,5.93
2023-04-30T03:41:58.821Z,5.55
2023-04-30T03:44:25.361Z,5.60
2023-04-30T03:46:51.837Z,5.78
2023-04-30T03:49:18.309Z,5.90
2023-04-30T03:51:45.077Z,6.10
2023-04-30T03:54:11.561Z,6.60
2023-04-30T03:56:38.126Z,5.45
2023-04-30T03:59:05.505Z,6.03
2023-04-30T04:01:32.110Z,5.50
2023-04-30T04:03:58.865Z,5.93
2023-04-30T04:06:25.516Z,6.10
2023-04-30T04:08:52.001Z,5.82
2023-04-30T04:11:18.473Z,5.57
2023-04-30T04:13:44.979Z,5.80
2023-04-30T04:16:11.624Z,5.60
2023-04-30T04:18:38.156Z,4.95
2023-04-30T04:21:04.729Z,4.95
2023-04-30T04:23:31.175Z,5.18
2023-04-30T04:25:57.594Z,5.40
2023-04-30T04:28:24.115Z,5.60
2023-04-30T04:30:50.594Z,5.68
2023-04-30T04:33:17.587Z,5.40
2023-04-30T04:35:44.045Z,5.18
2023-04-30T04:38:10.537Z,5.25
2023-04-30T04:40:38.331Z,5.35
2023-04-30T04:43:04.877Z,5.10
2023-04-30T04:45:31.936Z,5.07
2023-04-30T04:47:58.436Z,5.85
2023-04-30T04:50:24.990Z,5.30
2023-04-30T04:52:51.512Z,5.28
2023-04-30T04:55:18.984Z,5.28
2023-04-30T04:57:45.529Z,6.97
2023-04-30T05:00:13.056Z,6.15
2023-04-30T05:02:39.619Z,6.55
2023-04-30T05:05:06.941Z,6.50
2023-04-30T05:07:35.006Z,7.07
2023-04-30T05:10:01.475Z,7.20
2023-04-30T05:12:27.967Z,7.22
2023-04-30T05:14:54.484Z,6.88
2023-04-30T05:17:21.076Z,7.15
2023-04-30T05:19:50.679Z,7.53
2023-04-30T05:22:17.482Z,8.13
2023-04-30T05:24:43.950Z,7.68
2023-04-30T05:27:10.458Z,7.78
2023-04-30T05:29:36.945Z,7.60
2023-04-30T05:32:03.672Z,7.82
2023-04-30T05:34:30.314Z,7.68
2023-04-30T05:36:56.798Z,8.43
2023-04-30T05:39:23.255Z,9.75
2023-04-30T05:41:50.729Z,9.65
2023-04-30T05:44:18.135Z,11.07
2023-04-30T05:46:44.642Z,10.85
2023-04-30T05:49:11.314Z,10.98
2023-04-30T05:51:37.809Z,9.73
2023-04-30T05:54:04.382Z,10.25
2023-04-30T05:56:30.833Z,9.90
2023-04-30T05:58:57.293Z,9.70
2023-04-30T06:01:25.272Z,9.85
2023-04-30T06:03:52.373Z,10.15
2023-04-30T06:06:18.901Z,10.07
2023-04-30T06:08:45.734Z,10.77
2023-04-30T06:11:14.806Z,9.05
2023-04-30T06:13:41.348Z,8.95
2023-04-30T06:16:08.525Z,9.27
2023-04-30T06:18:35.210Z,9.68
2023-04-30T06:21:01.883Z,9.60
2023-04-30T06:23:28.442Z,10.00
2023-04-30T06:25:54.980Z,9.80
2023-04-30T06:28:21.489Z,10.07
2023-04-30T06:30:47.958Z,9.82
2023-04-30T06:33:14.453Z,9.30
2023-04-30T06:35:40.982Z,10.07
2023-04-30T06:38:07.429Z,10.02
2023-04-30T06:40:34.110Z,10.35
2023-04-30T06:43:00.675Z,9.60
2023-04-30T06:45:27.206Z,10.77
2023-04-30T06:47:53.687Z,10.13
2023-04-30T06:50:21.851Z,10.48
2023-04-30T06:52:48.793Z,10.50
2023-04-30T06:55:15.645Z,11.23
2023-04-30T06:57:42.061Z,11.13
2023-04-30T07:00:09.158Z,10.00
2023-04-30T07:02:36.287Z,9.52
2023-04-30T07:05:03.077Z,10.00
2023-04-30T07:07:29.610Z,8.75
2023-04-30T07:09:56.555Z,10.73
2023-04-30T07:12:23.533Z,9.52
2023-04-30T07:14:50.064Z,9.88
2023-04-30T07:17:16.960Z,9.85
2023-04-30T07:19:44.956Z,10.70
2023-04-30T07:22:11.447Z,10.82
2023-04-30T07:24:37.935Z,9.13
2023-04-30T07:27:04.518Z,11.88
2023-04-30T07:29:31.702Z,10.63
2023-04-30T07:31:58.503Z,10.48
2023-04-30T07:34:25.302Z,9.00
2023-04-30T07:36:51.960Z,10.30
2023-04-30T07:39:18.484Z,11.30
2023-04-30T07:41:45.097Z,11.98
2023-04-30T07:44:12.375Z,11.80
2023-04-30T07:46:38.983Z,13.02
2023-04-30T07:49:05.622Z,11.70
2023-04-30T07:51:33.068Z,9.93
2023-04-30T07:54:00.340Z,11.18
2023-04-30T07:56:26.857Z,11.27
2023-04-30T07:58:53.430Z,11.80
2023-04-30T08:01:19.928Z,9.60
2023-04-30T08:03:46.640Z,9.30
2023-04-30T08:06:14.548Z,9.73
2023-04-30T08:08:41.572Z,10.75
2023-04-30T08:11:08.102Z,9.60
2023-04-30T08:13:34.837Z,9.25
2023-04-30T08:16:01.630Z,8.60
2023-04-30T08:18:28.130Z,8.60
2023-04-30T08:20:54.658Z,8.48
2023-04-30T08:23:23.509Z,8.63
2023-04-30T08:25:49.998Z,8.90
2023-04-30T08:28:16.570Z,9.10
2023-04-30T08:30:43.550Z,9.65
2023-04-30T08:33:10.179Z,9.27
2023-04-30T08:35:36.770Z,9.05
2023-04-30T08:38:03.350Z,8.85
2023-04-30T08:40:49.517Z,8.75
2023-04-30T08:43:18.363Z,8.48
2023-04-30T08:45:45.048Z,7.72
2023-04-30T08:48:13.989Z,8.48
2023-04-30T08:50:40.819Z,8.10
2023-04-30T08:53:08.218Z,8.43
2023-04-30T08:55:39.711Z,8.55
2023-04-30T08:58:07.998Z,8.70
2023-04-30T09:00:36.629Z,8.85
2023-04-30T09:03:03.442Z,8.57
2023-04-30T09:05:30.036Z,8.80
2023-04-30T09:10:27.963Z,7.88
2023-04-30T09:13:07.496Z,7.63
2023-04-30T09:15:34.784Z,7.22
2023-04-30T09:18:07.722Z,31.60
2023-04-30T09:20:34.841Z,9.57
2023-04-30T09:23:08.461Z,9.20
2023-04-30T09:25:38.959Z,8.77
2023-04-30T09:28:12.150Z,8.02
2023-04-30T09:30:39.883Z,8.30
2023-04-30T09:33:07.344Z,8.43
2023-04-30T09:35:36.550Z,9.00
2023-04-30T09:38:03.767Z,7.72
2023-04-30T09:40:37.591Z,7.18
2023-04-30T09:43:05.298Z,7.72
2023-04-30T09:45:48.359Z,7.82
2023-04-30T09:48:24.388Z,6.70
2023-04-30T09:50:51.497Z,7.25
2023-04-30T09:53:18.384Z,7.57
2023-04-30T09:55:46.333Z,7.30
2023-04-30T09:58:13.197Z,5.85
2023-04-30T10:00:39.908Z,5.45
2023-04-30T10:03:10.891Z,5.47
2023-04-30T10:05:38.959Z,4.80
2023-04-30T10:08:07.288Z,4.93
2023-04-30T10:10:34.340Z,5.00
2023-04-30T10:13:04.562Z,5.00
2023-04-30T10:15:46.156Z,5.15
2023-04-30T10:18:19.891Z,5.22
2023-04-30T10:20:48.007Z,4.63
2023-04-30T10:23:14.637Z,5.30
2023-04-30T10:25:41.241Z,5.00
2023-04-30T10:28:08.781Z,4.38
2023-04-30T10:30:35.450Z,5.20
2023-04-30T10:33:20.802Z,4.60
2023-04-30T10:36:09.142Z,6.68
2023-04-30T10:38:36.210Z,4.00
2023-04-30T10:41:02.861Z,4.35
2023-04-30T10:43:33.253Z,4.70
2023-04-30T10:45:59.972Z,4.57
2023-04-30T10:48:27.388Z,4.60
2023-04-30T10:51:00.860Z,4.45
2023-04-30T10:53:30.314Z,5.07
2023-04-30T10:56:08.777Z,5.15
2023-04-30T10:58:39.428Z,5.40
2023-04-30T11:01:11.460Z,5.75
2023-04-30T11:03:40.203Z,5.95
2023-04-30T11:06:20.097Z,6.00
2023-04-30T11:08:47.183Z,5.40
2023-04-30T11:11:18.384Z,5.18
2023-04-30T11:13:45.791Z,5.22
2023-04-30T11:16:12.440Z,4.78
2023-04-30T11:18:45.870Z,5.50
2023-04-30T11:21:12.745Z,4.85
2023-04-30T11:23:43.526Z,4.93
2023-04-30T11:26:10.306Z,4.78
2023-04-30T11:28:38.198Z,4.78
2023-04-30T11:31:05.071Z,2.90
2023-04-30T11:33:32.721Z,3.10
2023-04-30T11:35:59.953Z,3.72
2023-04-30T11:38:30.409Z,4.00
2023-04-30T11:40:57.777Z,3.78
2023-04-30T11:43:25.216Z,3.92
2023-04-30T11:46:13.216Z,4.30
2023-04-30T11:48:42.205Z,4.43
2023-04-30T11:51:15.576Z,4.40
2023-04-30T11:53:43.595Z,4.25
2023-04-30T11:56:11.232Z,4.38
2023-04-30T11:58:39.257Z,4.80
2023-04-30T12:01:11.538Z,4.43
2023-04-30T12:03:45.005Z,4.57
2023-04-30T12:06:12.712Z,4.70
2023-04-30T12:08:41.170Z,4.22
2023-04-30T12:11:19.609Z,4.10
2023-04-30T12:13:50.389Z,4.20
2023-04-30T12:16:17.309Z,4.15
2023-04-30T12:18:43.897Z,5.05
2023-04-30T12:21:10.476Z,4.80
2023-04-30T12:23:42.228Z,4.32
2023-04-30T12:26:08.800Z,4.82
2023-04-30T12:28:35.431Z,3.50
2023-04-30T12:31:02.764Z,2.95
2023-04-30T12:33:32.162Z,3.20
2023-04-30T12:35:59.512Z,2.80
2023-04-30T12:38:26.065Z,2.83
2023-04-30T12:40:52.627Z,2.70
2023-04-30T12:43:19.163Z,2.50
2023-04-30T12:45:55.863Z,2.60
2023-04-30T12:48:25.885Z,2.70
2023-04-30T12:50:56.790Z,2.92
2023-04-30T12:53:24.052Z,2.67
2023-04-30T12:56:10.031Z,2.88
2023-04-30T12:58:37.582Z,2.55
2023-04-30T13:01:05.612Z,2.25
2023-04-30T13:03:32.493Z,3.20
2023-04-30T13:05:59.595Z,3.08
2023-04-30T13:08:26.258Z,2.80
2023-04-30T13:10:52.699Z,3.10
2023-04-30T13:13:20.278Z,3.05
2023-04-30T13:15:46.910Z,3.20
2023-04-30T13:18:15.757Z,2.92
2023-04-30T13:20:43.773Z,2.75
2023-04-30T13:23:11.862Z,2.38
2023-04-30T13:25:38.916Z,2.33
2023-04-30T13:28:05.518Z,2.17
2023-04-30T13:30:32.842Z,2.60
2023-04-30T13:32:59.723Z,2.67
2023-04-30T13:35:26.396Z,2.70
2023-04-30T13:37:53.604Z,2.70
2023-04-30T13:40:20.492Z,2.95
2023-04-30T13:42:47.456Z,2.33
2023-04-30T13:45:13.932Z,2.50
2023-04-30T13:47:40.497Z,2.30
2023-04-30T13:50:08.342Z,2.83
2023-04-30T13:52:34.834Z,2.30
2023-04-30T13:55:01.384Z,2.40
2023-04-30T13:57:30.053Z,2.22
2023-04-30T13:59:57.136Z,2.50
2023-04-30T14:02:23.907Z,2.40
2023-04-30T14:05:02.494Z,2.22
2023-04-30T14:07:32.343Z,2.30
2023-04-30T14:09:58.811Z,2.22
2023-04-30T14:12:25.295Z,2.00
2023-04-30T14:14:51.822Z,2.88
2023-04-30T14:17:18.308Z,2.35
2023-04-30T14:19:44.892Z,2.60
2023-04-30T14:22:11.852Z,3.28
2023-04-30T14:24:38.998Z,3.30
2023-04-30T14:27:05.538Z,3.63
2023-04-30T14:29:32.027Z,2.95
2023-04-30T14:31:58.623Z,2.83
2023-04-30T14:34:25.471Z,2.47
2023-04-30T14:36:52.025Z,2.58
2023-04-30T14:39:18.570Z,2.72
2023-04-30T14:41:45.018Z,2.95
2023-04-30T14:44:12.078Z,3.67
2023-04-30T14:46:38.752Z,3.28
2023-04-30T14:49:05.335Z,2.90
2023-04-30T14:51:32.317Z,3.22
2023-04-30T14:53:59.347Z,2.35
2023-04-30T14:56:25.872Z,2.58
2023-04-30T14:58:52.444Z,2.17
2023-04-30T15:01:19.194Z,2.35
2023-04-30T15:03:46.627Z,2.50
2023-04-30T15:06:13.811Z,2.53
2023-04-30T15:08:40.860Z,2.47
2023-04-30T15:11:09.730Z,2.90
2023-04-30T15:13:37.060Z,2.38
2023-04-30T15:16:03.690Z,2.45
2023-04-30T15:18:30.270Z,2.65
2023-04-30T15:20:56.879Z,2.40
2023-04-30T15:23:23.375Z,2.70
2023-04-30T15:25:49.881Z,2.88
2023-04-30T15:28:16.916Z,2.60
2023-04-30T15:30:43.364Z,2.55
2023-04-30T15:33:09.902Z,3.05
2023-04-30T15:35:36.456Z,3.30
2023-04-30T15:38:02.910Z,3.03
2023-04-30T15:40:29.685Z,2.95
2023-04-30T15:42:56.191Z,2.38
2023-04-30T15:45:25.214Z,2.22
2023-04-30T15:47:52.081Z,2.38
2023-04-30T15:50:18.598Z,2.55
2023-04-30T15:52:45.117Z,2.25
2023-04-30T15:55:11.597Z,2.42
2023-04-30T15:57:38.270Z,2.60
2023-04-30T16:00:05.184Z,2.90
2023-04-30T16:02:31.808Z,2.53
2023-04-30T16:04:58.284Z,2.35
2023-04-30T16:07:24.759Z,2.63
2023-04-30T16:09:51.243Z,2.45
2023-04-30T16:12:18.072Z,2.45
2023-04-30T16:14:44.530Z,2.28
2023-04-30T16:17:11.497Z,2.78
2023-04-30T16:19:37.956Z,2.63
2023-04-30T16:22:04.581Z,3.03
2023-04-30T16:24:31.287Z,3.05
2023-04-30T16:26:57.758Z,3.13
2023-04-30T16:29:24.558Z,3.58
2023-04-30T16:31:52.122Z,3.05
2023-04-30T16:34:18.747Z,3.58
2023-04-30T16:36:45.159Z,3.40
2023-04-30T16:39:11.645Z,3.38
2023-04-30T16:41:38.082Z,3.35
2023-04-30T16:44:05.339Z,2.80
2023-04-30T16:46:32.021Z,2.67
2023-04-30T16:48:58.521Z,2.90
2023-04-30T16:51:25.029Z,2.53
2023-04-30T16:53:51.479Z,3.10
2023-04-30T16:56:18.120Z,2.72
2023-04-30T16:58:44.680Z,2.30
2023-04-30T17:01:11.251Z,2.78
2023-04-30T17:03:37.979Z,3.03
2023-04-30T17:06:05.850Z,2.33
2023-04-30T17:08:32.314Z,2.75
2023-04-30T17:10:58.800Z,2.83
2023-04-30T17:13:25.305Z,2.88
2023-04-30T17:15:51.853Z,2.70
2023-04-30T17:18:18.422Z,2.90
2023-04-30T17:20:46.492Z,3.05
2023-04-30T17:23:12.963Z,2.75
2023-04-30T17:25:39.381Z,2.50
2023-04-30T17:28:05.845Z,2.40
2023-04-30T17:30:32.508Z,2.67
2023-04-30T17:33:00.410Z,2.85
2023-04-30T17:35:27.523Z,2.53
2023-04-30T17:37:54.108Z,3.03
2023-04-30T17:40:20.593Z,2.97
2023-04-30T17:42:47.456Z,3.10
2023-04-30T17:45:13.894Z,2.63
2023-04-30T17:47:40.452Z,2.50
2023-04-30T17:50:08.507Z,2.60
2023-04-30T17:52:38.834Z,2.40
2023-04-30T17:55:09.911Z,2.63
2023-04-30T17:57:36.865Z,2.72
2023-04-30T18:00:04.366Z,2.72
2023-04-30T18:02:32.545Z,2.78
2023-04-30T18:04:59.131Z,3.45
2023-04-30T18:07:25.943Z,3.90
2023-04-30T18:09:52.588Z,4.38
2023-04-30T18:12:19.364Z,3.78
2023-04-30T18:14:45.860Z,3.92
2023-04-30T18:17:12.484Z,3.78
2023-04-30T18:19:43.964Z,3.75
2023-04-30T18:22:12.341Z,3.92
2023-04-30T18:24:39.134Z,3.40
2023-04-30T18:27:06.911Z,5.00
2023-04-30T18:29:34.090Z,4.25
2023-04-30T18:32:00.777Z,4.20
2023-04-30T18:34:28.213Z,3.78
2023-04-30T18:36:55.808Z,4.88
2023-04-30T18:39:22.514Z,4.68
2023-04-30T18:41:49.383Z,4.53
2023-04-30T18:44:16.477Z,5.05
2023-04-30T18:46:43.099Z,4.78
2023-04-30T18:49:09.712Z,5.15
2023-04-30T18:51:36.456Z,5.70
2023-04-30T18:54:03.138Z,5.40
2023-04-30T18:56:29.667Z,6.35
2023-04-30T18:58:56.270Z,5.60
2023-04-30T19:01:24.432Z,6.03
2023-04-30T19:03:51.225Z,5.68
2023-04-30T19:06:18.024Z,5.22
2023-04-30T19:08:46.402Z,5.80
2023-04-30T19:11:13.846Z,5.72
2023-04-30T19:13:40.443Z,5.43
2023-04-30T19:16:06.971Z,5.65
2023-04-30T19:18:35.071Z,5.40
2023-04-30T19:21:02.350Z,5.20
2023-04-30T19:23:30.733Z,5.00
2023-04-30T19:25:58.024Z,5.35
2023-04-30T19:28:24.662Z,5.80
2023-04-30T19:30:54.258Z,5.57
2023-04-30T19:33:23.161Z,4.68
2023-04-30T19:35:51.119Z,4.80
2023-04-30T19:38:17.805Z,4.75
2023-04-30T19:40:52.036Z,4.75
2023-04-30T19:43:18.864Z,4.65
2023-04-30T19:45:47.326Z,4.60
2023-04-30T19:48:14.827Z,4.65
2023-04-30T19:50:43.065Z,4.95
2023-04-30T19:53:17.933Z,5.74
2023-04-30T19:55:45.910Z,4.82
2023-04-30T19:58:12.516Z,6.03
2023-04-30T20:00:44.458Z,5.35
2023-04-30T20:03:11.139Z,4.95
2023-04-30T20:05:38.163Z,5.10
2023-04-30T20:08:06.131Z,5.35
2023-04-30T20:10:36.517Z,4.80
2023-04-30T20:13:03.336Z,4.82
2023-04-30T20:15:30.215Z,5.10
2023-04-30T20:17:56.764Z,5.32
2023-04-30T20:20:26.579Z,5.30
2023-04-30T20:22:53.801Z,5.63
2023-04-30T20:25:20.713Z,5.32
2023-04-30T20:27:47.322Z,5.10
2023-04-30T20:30:13.896Z,5.00
2023-04-30T20:32:40.700Z,5.18
2023-04-30T20:35:07.576Z,5.03
2023-04-30T20:37:34.791Z,4.95
2023-04-30T20:40:01.585Z,4.85
2023-04-30T20:42:28.153Z,4.55
2023-04-30T20:44:55.243Z,4.68
2023-04-30T20:47:22.304Z,4.97
2023-04-30T20:49:51.228Z,4.47
2023-04-30T20:52:18.697Z,5.32
2023-04-30T20:54:45.691Z,4.38
2023-04-30T20:57:12.457Z,4.43
2023-04-30T20:59:38.991Z,4.85
2023-04-30T21:02:05.826Z,4.00
2023-04-30T21:04:32.315Z,4.30
2023-04-30T21:06:58.862Z,4.60
2023-04-30T21:09:25.635Z,4.15
2023-04-30T21:11:52.127Z,4.57
2023-04-30T21:14:21.183Z,3.90
2023-04-30T21:16:47.779Z,3.90
2023-04-30T21:19:14.983Z,4.05
2023-04-30T21:21:41.650Z,4.72
2023-04-30T21:24:08.848Z,4.47
2023-04-30T21:26:35.305Z,4.47
2023-04-30T21:29:02.912Z,4.18
2023-04-30T21:31:29.726Z,4.60
2023-04-30T21:33:56.421Z,4.80
2023-04-30T21:36:23.499Z,4.32
2023-04-30T21:38:50.036Z,4.38
2023-04-30T21:41:17.226Z,4.65
2023-04-30T21:43:44.235Z,4.00
2023-04-30T21:46:11.131Z,4.20
2023-04-30T21:48:38.419Z,4.40
2023-04-30T21:51:14.974Z,4.82
2023-04-30T21:53:41.936Z,4.90
2023-04-30T21:56:09.074Z,4.20
2023-04-30T21:58:36.057Z,4.47
2023-04-30T22:01:04.380Z,4.90
2023-04-30T22:03:31.493Z,4.28
2023-04-30T22:05:58.302Z,4.15
2023-04-30T22:08:24.879Z,4.80
2023-04-30T22:10:55.173Z,5.03
2023-04-30T22:13:21.874Z,4.40
2023-04-30T22:15:50.287Z,5.03
2023-04-30T22:18:17.306Z,4.75
2023-04-30T22:20:43.989Z,5.63
2023-04-30T22:23:10.647Z,5.47
2023-04-30T22:25:37.204Z,5.18
2023-04-30T22:28:03.752Z,5.22
2023-04-30T22:30:30.395Z,5.65
2023-04-30T22:32:57.970Z,5.13
2023-04-30T22:35:27.557Z,5.18
2023-04-30T22:37:54.136Z,6.05
2023-04-30T22:40:21.118Z,4.82
2023-04-30T22:42:48.019Z,5.38
2023-04-30T22:45:14.544Z,5.40
2023-04-30T22:47:41.729Z,4.85
2023-04-30T22:50:08.503Z,5.60
2023-04-30T22:52:35.063Z,5.70
2023-04-30T22:55:01.965Z,5.72
2023-04-30T22:57:28.510Z,5.90
2023-04-30T22:59:55.134Z,5.85
2023-04-30T23:02:22.828Z,5.80
2023-04-30T23:04:49.690Z,6.80
2023-04-30T23:07:16.461Z,6.30
2023-04-30T23:09:43.471Z,5.82
2023-04-30T23:12:10.207Z,5.88
2023-04-30T23:14:38.067Z,6.28
2023-04-30T23:17:05.013Z,6.47
2023-04-30T23:19:31.743Z,6.45
2023-04-30T23:21:58.182Z,5.68
2023-04-30T23:24:24.655Z,6.22
2023-04-30T23:26:51.371Z,5.97
2023-04-30T23:29:18.507Z,5.65
2023-04-30T23:31:45.110Z,6.00
2023-04-30T23:34:12.491Z,5.97
2023-04-30T23:36:38.968Z,6.00
2023-04-30T23:39:05.460Z,6.35
2023-04-30T23:41:31.858Z,6.38
2023-04-30T23:43:58.338Z,6.05
2023-04-30T23:46:25.064Z,5.90
2023-04-30T23:48:51.978Z,6.63
2023-04-30T23:51:19.049Z,6.65
2023-04-30T23:53:45.869Z,6.82
2023-04-30T23:56:12.407Z,7.15
2023-04-30T23:58:38.920Z,8.60
